sensor_id;sensor_type;location;lat;lon;timestamp;temperature;humidity
28725;DHT22;43472;48.980;9.646;2022-10-31T00:04:03;12.50;99.90
28725;DHT22;43472;48.980;9.646;2022-10-31T00:09:05;12.50;99.90
28725;DHT22;43472;48.980;9.646;2022-10-31T00:14:07;12.30;99.90
28725;DHT22;43472;48.980;9.646;2022-10-31T00:19:09;12.00;99.90
28725;DHT22;43472;48.980;9.646;2022-10-31T00:24:11;12.40;99.90
28725;DHT22;43472;48.980;9.646;2022-10-31T00:29:12;12.40;99.90
28725;DHT22;43472;48.980;9.646;2022-10-31T00:34:14;12.40;99.90
28725;DHT22;43472;48.980;9.646;2022-10-31T00:39:16;12.40;99.90
28725;DHT22;43472;48.980;9.646;2022-10-31T00:44:18;12.30;99.90
28725;DHT22;43472;48.980;9.646;2022-10-31T00:49:19;12.30;99.90
28725;DHT22;43472;48.980;9.646;2022-10-31T00:54:21;12.20;99.90
28725;DHT22;43472;48.980;9.646;2022-10-31T00:59:23;12.20;99.90
28725;DHT22;43472;48.980;9.646;2022-10-31T01:04:25;12.30;99.90
28725;DHT22;43472;48.980;9.646;2022-10-31T01:09:26;12.30;99.90
28725;DHT22;43472;48.980;9.646;2022-10-31T01:14:28;12.30;99.90
28725;DHT22;43472;48.980;9.646;2022-10-31T01:19:30;12.20;99.90
28725;DHT22;43472;48.980;9.646;2022-10-31T01:24:32;12.20;99.90
28725;DHT22;43472;48.980;9.646;2022-10-31T01:29:34;12.00;99.90
28725;DHT22;43472;48.980;9.646;2022-10-31T01:34:35;11.90;99.90
28725;DHT22;43472;48.980;9.646;2022-10-31T01:39:37;12.10;99.90
28725;DHT22;43472;48.980;9.646;2022-10-31T01:49:47;12.00;99.90
28725;DHT22;43472;48.980;9.646;2022-10-31T01:55:00;12.00;99.90
28725;DHT22;43472;48.980;9.646;2022-10-31T02:00:07;12.00;99.90
28725;DHT22;43472;48.980;9.646;2022-10-31T02:05:14;12.00;99.90
28725;DHT22;43472;48.980;9.646;2022-10-31T02:10:19;12.00;99.90
28725;DHT22;43472;48.980;9.646;2022-10-31T02:15:22;11.90;99.90
28725;DHT22;43472;48.980;9.646;2022-10-31T02:20:27;11.90;99.90
28725;DHT22;43472;48.980;9.646;2022-10-31T02:36:04;11.90;99.90
28725;DHT22;43472;48.980;9.646;2022-10-31T02:51:44;11.80;99.90
28725;DHT22;43472;48.980;9.646;2022-10-31T02:56:49;11.90;99.90
28725;DHT22;43472;48.980;9.646;2022-10-31T03:02:01;11.90;99.90
28725;DHT22;43472;48.980;9.646;2022-10-31T03:12:25;11.90;99.90
28725;DHT22;43472;48.980;9.646;2022-10-31T03:17:37;11.80;99.90
28725;DHT22;43472;48.980;9.646;2022-10-31T03:22:41;11.90;99.90
28725;DHT22;43472;48.980;9.646;2022-10-31T03:27:44;11.90;99.90
28725;DHT22;43472;48.980;9.646;2022-10-31T03:32:55;11.90;99.90
28725;DHT22;43472;48.980;9.646;2022-10-31T03:37:59;11.70;99.90
28725;DHT22;43472;48.980;9.646;2022-10-31T03:43:11;11.60;99.90
28725;DHT22;43472;48.980;9.646;2022-10-31T03:48:16;11.70;99.90
28725;DHT22;43472;48.980;9.646;2022-10-31T03:53:40;11.70;99.90
28725;DHT22;43472;48.980;9.646;2022-10-31T03:58:52;11.80;99.90
28725;DHT22;43472;48.980;9.646;2022-10-31T04:03:56;11.60;99.90
28725;DHT22;43472;48.980;9.646;2022-10-31T04:09:02;11.70;99.90
28725;DHT22;43472;48.980;9.646;2022-10-31T04:14:05;11.60;99.90
28725;DHT22;43472;48.980;9.646;2022-10-31T04:19:08;11.60;99.90
28725;DHT22;43472;48.980;9.646;2022-10-31T04:24:11;11.60;99.90
28725;DHT22;43472;48.980;9.646;2022-10-31T04:29:13;11.60;99.90
28725;DHT22;43472;48.980;9.646;2022-10-31T04:34:14;11.60;99.90
28725;DHT22;43472;48.980;9.646;2022-10-31T04:39:16;11.30;99.90
28725;DHT22;43472;48.980;9.646;2022-10-31T04:44:24;11.40;99.90
28725;DHT22;43472;48.980;9.646;2022-10-31T04:49:26;11.40;99.90
28725;DHT22;43472;48.980;9.646;2022-10-31T04:54:27;11.40;99.90
28725;DHT22;43472;48.980;9.646;2022-10-31T04:59:29;11.40;99.90
28725;DHT22;43472;48.980;9.646;2022-10-31T05:04:31;11.50;99.90
28725;DHT22;43472;48.980;9.646;2022-10-31T05:09:33;11.20;99.90
28725;DHT22;43472;48.980;9.646;2022-10-31T05:14:34;11.20;99.90
28725;DHT22;43472;48.980;9.646;2022-10-31T05:19:36;11.50;99.90
28725;DHT22;43472;48.980;9.646;2022-10-31T05:24:38;11.30;99.90
28725;DHT22;43472;48.980;9.646;2022-10-31T05:29:40;11.30;99.90
28725;DHT22;43472;48.980;9.646;2022-10-31T05:34:43;11.20;99.90
28725;DHT22;43472;48.980;9.646;2022-10-31T05:39:44;11.30;99.90
28725;DHT22;43472;48.980;9.646;2022-10-31T05:44:46;11.30;99.90
28725;DHT22;43472;48.980;9.646;2022-10-31T05:49:48;11.30;99.90
28725;DHT22;43472;48.980;9.646;2022-10-31T05:54:50;11.30;99.90
28725;DHT22;43472;48.980;9.646;2022-10-31T06:04:55;11.10;99.90
28725;DHT22;43472;48.980;9.646;2022-10-31T06:09:57;11.20;99.90
28725;DHT22;43472;48.980;9.646;2022-10-31T06:14:59;11.50;99.90
28725;DHT22;43472;48.980;9.646;2022-10-31T06:20:01;11.40;99.90
28725;DHT22;43472;48.980;9.646;2022-10-31T06:25:04;11.20;99.90
28725;DHT22;43472;48.980;9.646;2022-10-31T06:30:06;11.20;99.90
28725;DHT22;43472;48.980;9.646;2022-10-31T06:35:08;11.20;99.90
28725;DHT22;43472;48.980;9.646;2022-10-31T06:40:11;11.30;99.90
28725;DHT22;43472;48.980;9.646;2022-10-31T06:45:13;11.30;99.90
28725;DHT22;43472;48.980;9.646;2022-10-31T06:50:15;11.40;99.90
28725;DHT22;43472;48.980;9.646;2022-10-31T06:55:17;11.50;99.90
28725;DHT22;43472;48.980;9.646;2022-10-31T07:10:25;12.00;99.90
28725;DHT22;43472;48.980;9.646;2022-10-31T07:15:29;12.00;99.90
28725;DHT22;43472;48.980;9.646;2022-10-31T07:20:31;11.90;99.90
28725;DHT22;43472;48.980;9.646;2022-10-31T07:25:33;12.20;99.90
28725;DHT22;43472;48.980;9.646;2022-10-31T07:30:35;12.30;99.90
28725;DHT22;43472;48.980;9.646;2022-10-31T07:40:40;12.30;99.90
28725;DHT22;43472;48.980;9.646;2022-10-31T07:45:42;12.60;99.90
28725;DHT22;43472;48.980;9.646;2022-10-31T07:50:44;12.70;99.90
28725;DHT22;43472;48.980;9.646;2022-10-31T07:55:46;12.80;99.90
28725;DHT22;43472;48.980;9.646;2022-10-31T08:00:48;13.00;99.90
28725;DHT22;43472;48.980;9.646;2022-10-31T08:05:50;12.90;99.90
28725;DHT22;43472;48.980;9.646;2022-10-31T08:10:52;13.20;99.90
28725;DHT22;43472;48.980;9.646;2022-10-31T08:15:54;13.40;99.90
28725;DHT22;43472;48.980;9.646;2022-10-31T08:20:57;13.40;99.90
28725;DHT22;43472;48.980;9.646;2022-10-31T08:25:59;13.70;99.90
28725;DHT22;43472;48.980;9.646;2022-10-31T08:31:00;13.80;99.90
28725;DHT22;43472;48.980;9.646;2022-10-31T08:36:02;14.20;99.90
28725;DHT22;43472;48.980;9.646;2022-10-31T08:41:04;13.00;99.90
28725;DHT22;43472;48.980;9.646;2022-10-31T08:46:06;14.60;99.90
28725;DHT22;43472;48.980;9.646;2022-10-31T08:51:09;14.60;99.90
28725;DHT22;43472;48.980;9.646;2022-10-31T08:56:11;12.60;99.90
28725;DHT22;43472;48.980;9.646;2022-10-31T09:01:13;14.70;99.90
28725;DHT22;43472;48.980;9.646;2022-10-31T09:06:15;15.00;99.90
28725;DHT22;43472;48.980;9.646;2022-10-31T09:11:17;15.20;99.90
28725;DHT22;43472;48.980;9.646;2022-10-31T09:16:19;15.40;99.90
28725;DHT22;43472;48.980;9.646;2022-10-31T09:21:21;15.40;99.90
28725;DHT22;43472;48.980;9.646;2022-10-31T09:26:22;15.70;99.90
28725;DHT22;43472;48.980;9.646;2022-10-31T09:31:24;15.90;99.90
28725;DHT22;43472;48.980;9.646;2022-10-31T09:36:26;16.10;99.90
28725;DHT22;43472;48.980;9.646;2022-10-31T09:47:38;16.60;99.90
28725;DHT22;43472;48.980;9.646;2022-10-31T09:52:48;16.60;99.90
28725;DHT22;43472;48.980;9.646;2022-10-31T09:57:53;17.00;99.90
28725;DHT22;43472;48.980;9.646;2022-10-31T10:08:08;17.00;99.90
28725;DHT22;43472;48.980;9.646;2022-10-31T10:18:44;17.70;99.90
28725;DHT22;43472;48.980;9.646;2022-10-31T10:29:34;18.00;99.90
28725;DHT22;43472;48.980;9.646;2022-10-31T10:34:45;18.60;99.90
28725;DHT22;43472;48.980;9.646;2022-10-31T10:39:52;18.70;99.90
28725;DHT22;43472;48.980;9.646;2022-10-31T10:44:55;19.60;99.90
28725;DHT22;43472;48.980;9.646;2022-10-31T10:50:23;19.90;99.90
28725;DHT22;43472;48.980;9.646;2022-10-31T10:55:44;20.70;99.90
28725;DHT22;43472;48.980;9.646;2022-10-31T11:00:48;21.50;99.90
28725;DHT22;43472;48.980;9.646;2022-10-31T11:05:55;21.70;99.90
28725;DHT22;43472;48.980;9.646;2022-10-31T11:16:09;22.60;99.90
28725;DHT22;43472;48.980;9.646;2022-10-31T11:21:27;22.60;99.90
28725;DHT22;43472;48.980;9.646;2022-10-31T11:26:30;21.90;99.90
28725;DHT22;43472;48.980;9.646;2022-10-31T11:31:32;21.80;99.90
28725;DHT22;43472;48.980;9.646;2022-10-31T11:36:38;21.50;99.90
28725;DHT22;43472;48.980;9.646;2022-10-31T11:41:43;21.20;99.90
28725;DHT22;43472;48.980;9.646;2022-10-31T11:46:49;20.90;99.90
28725;DHT22;43472;48.980;9.646;2022-10-31T11:51:52;20.80;99.90
28725;DHT22;43472;48.980;9.646;2022-10-31T11:56:55;20.50;99.90
28725;DHT22;43472;48.980;9.646;2022-10-31T12:01:59;20.90;99.90
28725;DHT22;43472;48.980;9.646;2022-10-31T12:07:02;20.90;99.90
28725;DHT22;43472;48.980;9.646;2022-10-31T12:17:21;21.10;99.90
28725;DHT22;43472;48.980;9.646;2022-10-31T12:49:11;21.60;99.90
28725;DHT22;43472;48.980;9.646;2022-10-31T13:09:40;20.90;99.90
28725;DHT22;43472;48.980;9.646;2022-10-31T13:14:49;20.60;99.90
28725;DHT22;43472;48.980;9.646;2022-10-31T13:20:02;20.40;99.90
28725;DHT22;43472;48.980;9.646;2022-10-31T13:25:16;20.20;99.90
28725;DHT22;43472;48.980;9.646;2022-10-31T13:30:21;20.00;99.90
28725;DHT22;43472;48.980;9.646;2022-10-31T13:35:37;19.90;99.90
28725;DHT22;43472;48.980;9.646;2022-10-31T13:41:02;19.80;99.90
28725;DHT22;43472;48.980;9.646;2022-10-31T13:46:23;19.70;99.90
28725;DHT22;43472;48.980;9.646;2022-10-31T13:51:28;19.70;99.90
28725;DHT22;43472;48.980;9.646;2022-10-31T13:56:32;19.60;99.90
28725;DHT22;43472;48.980;9.646;2022-10-31T14:01:35;19.60;99.90
28725;DHT22;43472;48.980;9.646;2022-10-31T14:11:49;19.70;99.90
28725;DHT22;43472;48.980;9.646;2022-10-31T14:16:56;20.10;99.90
28725;DHT22;43472;48.980;9.646;2022-10-31T14:21:59;22.40;99.90
28725;DHT22;43472;48.980;9.646;2022-10-31T14:32:26;29.20;99.90
28725;DHT22;43472;48.980;9.646;2022-10-31T14:43:07;25.50;99.90
28725;DHT22;43472;48.980;9.646;2022-10-31T14:53:52;22.40;99.90
28725;DHT22;43472;48.980;9.646;2022-10-31T14:58:57;21.60;99.90
28725;DHT22;43472;48.980;9.646;2022-10-31T15:04:21;21.10;99.90
28725;DHT22;43472;48.980;9.646;2022-10-31T15:09:35;20.80;99.90
28725;DHT22;43472;48.980;9.646;2022-10-31T15:14:38;20.20;99.90
28725;DHT22;43472;48.980;9.646;2022-10-31T15:19:40;19.90;99.90
28725;DHT22;43472;48.980;9.646;2022-10-31T15:24:43;19.60;99.90
28725;DHT22;43472;48.980;9.646;2022-10-31T15:29:54;19.30;99.90
28725;DHT22;43472;48.980;9.646;2022-10-31T15:34:56;18.90;99.90
28725;DHT22;43472;48.980;9.646;2022-10-31T15:40:07;18.50;99.90
28725;DHT22;43472;48.980;9.646;2022-10-31T15:55:38;17.80;99.90
28725;DHT22;43472;48.980;9.646;2022-10-31T16:00:58;17.70;99.90
28725;DHT22;43472;48.980;9.646;2022-10-31T16:06:02;17.30;99.90
28725;DHT22;43472;48.980;9.646;2022-10-31T16:16:15;17.00;99.90
28725;DHT22;43472;48.980;9.646;2022-10-31T16:21:38;16.90;99.90
28725;DHT22;43472;48.980;9.646;2022-10-31T16:26:41;16.80;99.90
28725;DHT22;43472;48.980;9.646;2022-10-31T16:31:43;16.60;99.90
28725;DHT22;43472;48.980;9.646;2022-10-31T16:36:44;16.50;99.90
28725;DHT22;43472;48.980;9.646;2022-10-31T16:41:50;16.40;99.90
28725;DHT22;43472;48.980;9.646;2022-10-31T16:47:14;16.20;99.90
28725;DHT22;43472;48.980;9.646;2022-10-31T16:52:17;16.10;99.90
28725;DHT22;43472;48.980;9.646;2022-10-31T16:57:25;16.10;99.90
28725;DHT22;43472;48.980;9.646;2022-10-31T17:02:28;16.00;99.90
28725;DHT22;43472;48.980;9.646;2022-10-31T17:07:30;15.80;99.90
28725;DHT22;43472;48.980;9.646;2022-10-31T17:12:32;15.70;99.90
28725;DHT22;43472;48.980;9.646;2022-10-31T17:17:34;15.50;99.90
28725;DHT22;43472;48.980;9.646;2022-10-31T17:22:35;15.50;99.90
28725;DHT22;43472;48.980;9.646;2022-10-31T17:27:37;15.40;99.90
28725;DHT22;43472;48.980;9.646;2022-10-31T17:32:43;15.30;99.90
28725;DHT22;43472;48.980;9.646;2022-10-31T17:37:45;15.20;99.90
28725;DHT22;43472;48.980;9.646;2022-10-31T17:42:52;15.00;99.90
28725;DHT22;43472;48.980;9.646;2022-10-31T17:47:54;14.90;99.90
28725;DHT22;43472;48.980;9.646;2022-10-31T17:52:57;15.00;99.90
28725;DHT22;43472;48.980;9.646;2022-10-31T17:57:59;14.90;99.90
28725;DHT22;43472;48.980;9.646;2022-10-31T18:03:02;14.90;99.90
28725;DHT22;43472;48.980;9.646;2022-10-31T18:08:05;14.90;99.90
28725;DHT22;43472;48.980;9.646;2022-10-31T18:13:07;14.80;99.90
28725;DHT22;43472;48.980;9.646;2022-10-31T18:18:08;14.60;99.90
28725;DHT22;43472;48.980;9.646;2022-10-31T18:23:10;14.50;99.90
28725;DHT22;43472;48.980;9.646;2022-10-31T18:28:13;14.50;99.90
28725;DHT22;43472;48.980;9.646;2022-10-31T18:33:15;14.40;99.90
28725;DHT22;43472;48.980;9.646;2022-10-31T18:38:17;14.30;99.90
28725;DHT22;43472;48.980;9.646;2022-10-31T18:43:19;14.20;99.90
28725;DHT22;43472;48.980;9.646;2022-10-31T18:48:20;14.20;99.90
28725;DHT22;43472;48.980;9.646;2022-10-31T18:53:23;14.20;99.90
28725;DHT22;43472;48.980;9.646;2022-10-31T18:58:26;14.00;99.90
28725;DHT22;43472;48.980;9.646;2022-10-31T19:03:27;14.10;99.90
28725;DHT22;43472;48.980;9.646;2022-10-31T19:08:29;14.10;99.90
28725;DHT22;43472;48.980;9.646;2022-10-31T19:13:32;14.10;99.90
28725;DHT22;43472;48.980;9.646;2022-10-31T19:18:35;14.10;99.90
28725;DHT22;43472;48.980;9.646;2022-10-31T19:23:38;14.00;99.90
28725;DHT22;43472;48.980;9.646;2022-10-31T19:28:40;14.00;99.90
28725;DHT22;43472;48.980;9.646;2022-10-31T19:33:43;13.90;99.90
28725;DHT22;43472;48.980;9.646;2022-10-31T19:38:47;13.90;99.90
28725;DHT22;43472;48.980;9.646;2022-10-31T19:43:49;13.60;99.90
28725;DHT22;43472;48.980;9.646;2022-10-31T19:48:51;13.80;99.90
28725;DHT22;43472;48.980;9.646;2022-10-31T19:53:53;13.70;99.90
28725;DHT22;43472;48.980;9.646;2022-10-31T19:58:56;13.50;99.90
28725;DHT22;43472;48.980;9.646;2022-10-31T20:04:00;13.50;99.90
28725;DHT22;43472;48.980;9.646;2022-10-31T20:09:04;13.60;99.90
28725;DHT22;43472;48.980;9.646;2022-10-31T20:14:07;13.60;99.90
28725;DHT22;43472;48.980;9.646;2022-10-31T20:19:09;13.40;99.90
28725;DHT22;43472;48.980;9.646;2022-10-31T20:24:11;13.50;99.90
28725;DHT22;43472;48.980;9.646;2022-10-31T20:29:13;13.50;99.90
28725;DHT22;43472;48.980;9.646;2022-10-31T20:34:18;13.30;99.90
28725;DHT22;43472;48.980;9.646;2022-10-31T20:39:20;13.50;99.90
28725;DHT22;43472;48.980;9.646;2022-10-31T20:44:22;13.20;99.90
28725;DHT22;43472;48.980;9.646;2022-10-31T20:49:23;13.40;99.90
28725;DHT22;43472;48.980;9.646;2022-10-31T20:54:25;13.30;99.90
28725;DHT22;43472;48.980;9.646;2022-10-31T20:59:27;13.40;99.90
28725;DHT22;43472;48.980;9.646;2022-10-31T21:04:29;13.40;99.90
28725;DHT22;43472;48.980;9.646;2022-10-31T21:09:30;13.40;99.90
28725;DHT22;43472;48.980;9.646;2022-10-31T21:19:34;13.50;99.90
28725;DHT22;43472;48.980;9.646;2022-10-31T21:24:36;13.60;99.90
28725;DHT22;43472;48.980;9.646;2022-10-31T21:29:38;13.60;99.90
28725;DHT22;43472;48.980;9.646;2022-10-31T21:34:40;13.60;99.90
28725;DHT22;43472;48.980;9.646;2022-10-31T21:39:42;13.60;99.90
28725;DHT22;43472;48.980;9.646;2022-10-31T21:44:51;13.60;99.90
28725;DHT22;43472;48.980;9.646;2022-10-31T21:49:52;14.10;99.90
28725;DHT22;43472;48.980;9.646;2022-10-31T21:59:56;13.30;99.90
28725;DHT22;43472;48.980;9.646;2022-10-31T22:04:58;13.30;99.90
28725;DHT22;43472;48.980;9.646;2022-10-31T22:10:00;13.30;99.90
28725;DHT22;43472;48.980;9.646;2022-10-31T22:20:04;13.10;99.90
28725;DHT22;43472;48.980;9.646;2022-10-31T22:25:06;13.00;99.90
28725;DHT22;43472;48.980;9.646;2022-10-31T22:30:09;13.10;99.90
28725;DHT22;43472;48.980;9.646;2022-10-31T22:35:11;13.10;99.90
28725;DHT22;43472;48.980;9.646;2022-10-31T22:40:13;13.10;99.90
28725;DHT22;43472;48.980;9.646;2022-10-31T22:45:14;13.10;99.90
28725;DHT22;43472;48.980;9.646;2022-10-31T22:50:16;13.00;99.90
28725;DHT22;43472;48.980;9.646;2022-10-31T22:55:18;13.00;99.90
28725;DHT22;43472;48.980;9.646;2022-10-31T23:00:20;12.90;99.90
28725;DHT22;43472;48.980;9.646;2022-10-31T23:05:22;12.80;99.90
28725;DHT22;43472;48.980;9.646;2022-10-31T23:10:23;12.80;99.90
28725;DHT22;43472;48.980;9.646;2022-10-31T23:15:36;12.80;99.90
28725;DHT22;43472;48.980;9.646;2022-10-31T23:20:38;12.80;99.90
28725;DHT22;43472;48.980;9.646;2022-10-31T23:25:43;12.70;99.90
28725;DHT22;43472;48.980;9.646;2022-10-31T23:31:03;12.60;99.90
28725;DHT22;43472;48.980;9.646;2022-10-31T23:36:05;12.70;99.90
28725;DHT22;43472;48.980;9.646;2022-10-31T23:41:07;12.70;99.90
28725;DHT22;43472;48.980;9.646;2022-10-31T23:46:09;12.70;99.90
28725;DHT22;43472;48.980;9.646;2022-10-31T23:51:11;12.60;99.90
28725;DHT22;43472;48.980;9.646;2022-10-31T23:56:13;12.60;99.90
